NTB weather

Notodden Airport
Notodden, Telemark, Norway

Public forecast

Using degrees Celsius for public forecast. Weather courtesy of forecast.io.

Current aviation weather report (METAR) for Notodden Airport

Retrieved 2019/10/14 10:50 UTC (1 hour ago):

ENNO 141050Z 00000KT 9999 FEW024 12/07 Q1011

Closest aviation forecast (TAF) to Notodden Airport

Closest forecast is Sandefjord Airport, Torp, 39.3 nm (72.7 km) SE. Retrieved 2019/10/14 12:57 UTC (0 seconds ago):

TAF ENTO 141100Z 1412/1512 35010KT 9999 FEW010 BKN020 BECMG 1412/1414 VRB05KT PROB40 1422/1506 BKN012 BECMG 1502/1504 10010KT BECMG 1508/1510 BKN012 PROB40 1510/1512 4000 -RA BKN008